ěÝzenÝ letovÚho provozu ╚eskÚ republiky
Letiste: LKPR Aktualizace: 01.03.2021 20:00:25  UTC
 METAR LKPR 01.03. 20:00 ...
METAR LKPR 012000Z 11002KT 3000 0900SE R24/P2000N R30/P2000N BR BCFG FEW004 00/M00 Q1034 NOSIG RMK REG QNH 1030=
 TAF LKPR 01.03. 17:00 ...
TAF LKPR 011700Z 0118/0300 VRB02KT 6000 NSC      TEMPO 0118/0121 2500 BR MIFG FEW004      BECMG 0121/0123 2000 BR OVC004      TEMPO 0123/0209 1200 BR BKN002      PROB30 TEMPO 0123/0208 0600 FZFG VV001      BECMG 0209/0211 5000 BR BKN009      BECMG 0211/0213 CAVOK      BECMG 0222/0300 22004KT 3500 BR NSC=